createdAt,value
2022-08-05T00:01:27.644Z,99422.72
2022-08-05T00:03:54.813Z,99423.56
2022-08-05T00:06:32.236Z,99487.81
2022-08-05T00:09:00.427Z,99514.66
2022-08-05T00:11:34.826Z,99518.16
2022-08-05T00:14:13.071Z,99538.63
2022-08-05T00:16:52.548Z,99525.63
2022-08-05T00:19:23.407Z,99557.16
2022-08-05T00:21:51.608Z,99522.09
2022-08-05T00:24:24.549Z,99569.03
2022-08-05T00:26:52.954Z,99699.19
2022-08-05T00:29:22.755Z,99759.50
2022-08-05T00:32:10.265Z,99775.56
2022-08-05T00:35:06.116Z,99774.22
2022-08-05T00:37:28.835Z,99753.19
2022-08-05T00:40:17.814Z,99700.69
2022-08-05T00:42:53.097Z,99627.94
2022-08-05T00:45:28.255Z,99587.13
2022-08-05T00:48:10.423Z,99505.28
2022-08-05T00:50:39.530Z,99384.22
2022-08-05T00:53:09.910Z,99230.88
2022-08-05T00:55:55.057Z,99057.38
2022-08-05T00:58:21.492Z,98902.66
2022-08-05T01:00:54.069Z,98742.50
2022-08-05T01:03:22.899Z,98618.78
2022-08-05T01:05:51.063Z,98502.19
2022-08-05T01:08:41.774Z,98406.34
2022-08-05T01:11:06.696Z,98281.25
2022-08-05T01:13:58.018Z,98177.75
2022-08-05T01:16:30.459Z,98034.63
2022-08-05T01:19:01.113Z,97918.16
2022-08-05T01:21:59.859Z,97789.72
2022-08-05T01:24:39.976Z,97707.13
2022-08-05T01:27:32.908Z,97675.94
2022-08-05T01:30:01.584Z,97644.00
2022-08-05T01:32:28.028Z,97626.06
2022-08-05T01:34:58.517Z,97603.13
2022-08-05T01:37:29.549Z,97585.50
2022-08-05T01:39:59.434Z,97565.03
2022-08-05T01:42:26.519Z,97578.16
2022-08-05T01:44:54.248Z,97566.03
2022-08-05T01:47:21.565Z,97559.06
2022-08-05T01:50:01.535Z,97548.94
2022-08-05T01:52:29.150Z,97554.06
2022-08-05T01:54:58.189Z,97561.94
2022-08-05T01:58:18.879Z,97540.31
2022-08-05T02:00:15.183Z,97514.16
2022-08-05T02:02:54.890Z,97497.19
2022-08-05T02:05:23.705Z,97495.34
2022-08-05T02:07:57.871Z,97480.56
2022-08-05T02:10:28.693Z,97454.66
2022-08-05T02:12:56.910Z,97443.84
2022-08-05T02:15:33.380Z,97434.22
2022-08-05T02:18:33.209Z,97424.03
2022-08-05T02:21:03.625Z,97409.34
2022-08-05T02:23:33.499Z,97407.03
2022-08-05T02:26:00.623Z,97404.41
2022-08-05T02:28:32.131Z,97400.06
2022-08-05T02:31:14.278Z,97418.34
2022-08-05T02:33:44.913Z,97399.75
2022-08-05T02:36:16.060Z,97387.06
2022-08-05T02:38:53.623Z,97377.78
2022-08-05T02:41:20.999Z,97370.09
2022-08-05T02:44:05.932Z,97362.81
2022-08-05T02:46:34.099Z,97383.25
2022-08-05T02:49:00.962Z,97398.38
2022-08-05T02:51:28.520Z,97417.97
2022-08-05T02:54:34.821Z,97454.94
2022-08-05T02:57:00.430Z,97493.53
2022-08-05T02:59:27.795Z,97508.00
2022-08-05T03:01:58.090Z,97514.84
2022-08-05T03:04:25.270Z,97502.53
2022-08-05T03:06:54.425Z,97508.25
2022-08-05T03:09:36.445Z,97511.13
2022-08-05T03:12:24.544Z,97541.84
2022-08-05T03:14:51.391Z,97556.63
2022-08-05T03:17:17.835Z,97563.59
2022-08-05T03:19:46.710Z,97548.13
2022-08-05T03:22:18.925Z,97550.13
2022-08-05T03:24:58.503Z,97525.16
2022-08-05T03:27:59.954Z,97571.06
2022-08-05T03:30:30.183Z,97605.34
2022-08-05T03:33:01.132Z,97622.94
2022-08-05T03:35:28.538Z,97614.13
2022-08-05T03:38:02.547Z,97615.28
2022-08-05T03:40:31.870Z,97614.44
2022-08-05T03:42:59.050Z,97597.81
2022-08-05T03:45:28.025Z,97674.81
2022-08-05T03:47:56.873Z,97700.75
2022-08-05T03:50:23.660Z,97701.78
2022-08-05T03:55:51.580Z,97685.97
2022-08-05T03:56:10.322Z,97661.53
2022-08-05T03:58:37.816Z,97696.25
2022-08-05T04:01:07.976Z,97716.22
2022-08-05T04:03:38.267Z,97688.47
2022-08-05T04:06:05.764Z,97682.78
2022-08-05T04:08:36.705Z,97679.47
2022-08-05T04:11:04.396Z,97674.16
2022-08-05T04:13:50.938Z,97685.13
2022-08-05T04:16:25.040Z,97685.97
2022-08-05T04:18:58.636Z,97673.84
2022-08-05T04:22:09.430Z,97672.34
2022-08-05T04:24:18.732Z,97668.88
2022-08-05T04:26:46.293Z,97658.22
2022-08-05T04:29:13.101Z,97643.97
2022-08-05T04:31:40.803Z,96783.13
2022-08-05T04:34:31.357Z,96184.28
2022-08-05T04:36:54.159Z,97652.28
2022-08-05T04:39:20.971Z,98108.41
2022-08-05T04:41:48.515Z,98177.91
2022-08-05T04:44:21.383Z,98086.22
2022-08-05T04:46:56.471Z,97919.09
2022-08-05T04:49:24.605Z,97824.34
2022-08-05T04:52:05.157Z,97762.56
2022-08-05T04:54:34.155Z,98048.59
2022-08-05T04:57:00.631Z,98637.97
2022-08-05T04:59:38.496Z,98821.53
2022-08-05T05:02:37.402Z,98782.06
2022-08-05T05:04:52.835Z,98719.34
2022-08-05T05:07:29.452Z,98683.84
2022-08-05T05:09:59.012Z,98657.25
2022-08-05T05:12:29.142Z,98576.88
2022-08-05T05:14:55.594Z,98499.84
2022-08-05T05:17:24.627Z,98402.22
2022-08-05T05:19:55.195Z,98285.72
2022-08-05T05:22:26.585Z,98180.81
2022-08-05T05:24:59.786Z,98062.69
2022-08-05T05:27:44.499Z,97959.00
2022-08-05T05:30:15.361Z,97847.31
2022-08-05T05:32:55.525Z,97739.28
2022-08-05T05:35:22.923Z,97644.41
2022-08-05T05:37:59.726Z,97525.56
2022-08-05T05:40:35.508Z,97425.19
2022-08-05T05:43:02.897Z,97307.28
2022-08-05T05:45:29.445Z,97144.72
2022-08-05T05:48:06.852Z,96984.94
2022-08-05T05:50:41.149Z,96841.31
2022-08-05T05:53:20.783Z,96697.50
2022-08-05T05:55:52.263Z,96565.41
2022-08-05T05:58:31.639Z,96470.13
2022-08-05T06:01:13.093Z,96399.38
2022-08-05T06:04:00.700Z,96290.19
2022-08-05T06:06:30.747Z,96161.78
2022-08-05T06:08:59.590Z,96070.38
2022-08-05T06:11:26.171Z,96010.75
2022-08-05T06:13:55.547Z,95877.56
2022-08-05T06:16:28.840Z,95805.63
2022-08-05T06:19:00.292Z,95742.59
2022-08-05T06:21:36.088Z,95684.13
2022-08-05T06:24:04.323Z,95634.81
2022-08-05T06:26:31.859Z,95586.38
2022-08-05T06:29:03.531Z,95540.50
2022-08-05T06:31:47.003Z,95469.56
2022-08-05T06:34:13.688Z,95407.25
2022-08-05T06:36:57.004Z,95365.38
2022-08-05T06:39:27.330Z,95329.81
2022-08-05T06:41:59.274Z,95356.81
2022-08-05T06:44:26.078Z,95395.38
2022-08-05T06:46:52.698Z,95444.66
2022-08-05T06:49:21.378Z,95482.75
2022-08-05T06:52:07.510Z,95554.47
2022-08-05T06:54:53.906Z,95611.31
2022-08-05T06:58:03.132Z,95673.84
2022-08-05T07:00:09.638Z,95738.03
2022-08-05T07:02:46.170Z,95786.41
2022-08-05T07:05:15.314Z,95842.59
2022-08-05T07:07:48.818Z,95927.44
2022-08-05T07:10:16.422Z,95976.28
2022-08-05T07:13:01.590Z,96034.72
2022-08-05T07:16:01.990Z,96076.41
2022-08-05T07:18:31.901Z,96093.13
2022-08-05T07:20:58.628Z,96129.13
2022-08-05T07:23:31.364Z,96167.97
2022-08-05T07:25:57.793Z,96169.97
2022-08-05T07:28:25.212Z,96193.31
2022-08-05T07:30:53.994Z,96201.28
2022-08-05T07:33:36.918Z,96225.78
2022-08-05T07:36:20.747Z,96241.75
2022-08-05T07:38:48.934Z,96224.56
2022-08-05T07:42:13.148Z,96201.47
2022-08-05T07:44:05.754Z,96219.88
2022-08-05T07:46:41.110Z,96222.72
2022-08-05T07:49:14.801Z,96236.22
2022-08-05T07:51:54.017Z,96241.94
2022-08-05T07:54:31.430Z,96250.53
2022-08-05T07:57:16.854Z,96239.66
2022-08-05T07:59:50.276Z,96261.97
2022-08-05T08:02:17.820Z,96269.75
2022-08-05T08:04:48.562Z,96270.16
2022-08-05T08:07:15.492Z,96273.22
2022-08-05T08:09:42.631Z,96272.22
2022-08-05T08:12:30.622Z,96288.56
2022-08-05T08:14:55.674Z,96285.31
2022-08-05T08:17:23.432Z,96279.97
2022-08-05T08:20:21.751Z,96276.72
2022-08-05T08:22:36.530Z,96279.97
2022-08-05T08:25:04.028Z,96284.03
2022-08-05T08:27:47.441Z,96284.84
2022-08-05T08:30:19.002Z,96252.13
2022-08-05T08:32:48.022Z,96204.22
2022-08-05T08:35:17.659Z,96151.00
2022-08-05T08:37:45.704Z,96075.16
2022-08-05T08:40:20.012Z,96010.38
2022-08-05T08:42:52.542Z,95999.34
2022-08-05T08:45:26.535Z,95980.13
2022-08-05T08:48:12.845Z,95899.31
2022-08-05T08:51:03.902Z,95826.13
2022-08-05T08:53:28.883Z,95772.47
2022-08-05T08:56:03.406Z,95767.50
2022-08-05T08:58:43.192Z,95720.41
2022-08-05T09:01:16.252Z,95653.66
2022-08-05T09:03:55.158Z,95656.69
2022-08-05T09:06:28.097Z,95657.91
2022-08-05T09:08:57.199Z,95609.50
2022-08-05T09:11:51.345Z,95630.25
2022-08-05T09:14:56.508Z,95655.94
2022-08-05T09:16:58.861Z,95697.59
2022-08-05T09:19:27.925Z,95675.72
2022-08-05T09:22:23.144Z,95720.41
2022-08-05T09:24:59.986Z,95786.63
2022-08-05T09:28:04.191Z,95838.09
2022-08-05T09:30:23.236Z,95884.38
2022-08-05T09:32:50.275Z,95921.19
2022-08-05T09:35:20.168Z,95955.19
2022-08-05T09:38:17.324Z,95984.63
2022-08-05T09:40:44.592Z,96026.41
2022-08-05T09:43:49.365Z,96037.53
2022-08-05T09:46:29.971Z,96098.97
2022-08-05T09:49:08.199Z,96124.81
2022-08-05T09:51:43.900Z,96105.94
2022-08-05T09:54:15.441Z,96137.09
2022-08-05T09:56:51.750Z,96158.78
2022-08-05T09:59:19.021Z,96182.31
2022-08-05T10:01:47.363Z,96209.34
2022-08-05T10:04:16.061Z,96267.28
2022-08-05T10:06:58.999Z,96289.81
2022-08-05T10:09:27.956Z,96289.81
2022-08-05T10:11:56.222Z,96325.00
2022-08-05T10:14:30.323Z,96343.81
2022-08-05T10:17:14.134Z,96366.94
2022-08-05T10:20:03.884Z,96374.94
2022-08-05T10:22:37.977Z,96404.34
2022-08-05T10:25:09.554Z,96424.84
2022-08-05T10:28:13.774Z,96448.97
2022-08-05T10:31:19.837Z,96474.38
2022-08-05T10:33:14.858Z,96490.53
2022-08-05T10:35:44.366Z,96497.63
2022-08-05T10:38:11.754Z,96514.88
2022-08-05T10:40:57.887Z,96538.56
2022-08-05T10:43:53.987Z,96547.22
2022-08-05T10:46:23.852Z,96578.38
2022-08-05T10:48:58.005Z,96591.06
2022-08-05T10:51:29.185Z,96614.63
2022-08-05T10:54:00.885Z,96638.16
2022-08-05T10:56:43.796Z,96646.34
2022-08-05T11:00:02.219Z,96673.72
2022-08-05T11:02:14.649Z,96698.53
2022-08-05T11:04:57.646Z,96712.00
2022-08-05T11:07:32.862Z,96687.13
2022-08-05T11:10:21.635Z,96702.53
2022-08-05T11:12:50.335Z,96760.22
2022-08-05T11:15:59.054Z,96760.41
2022-08-05T11:18:34.131Z,96789.59
2022-08-05T11:21:02.879Z,96799.03
2022-08-05T11:24:03.129Z,96819.47
2022-08-05T11:26:32.619Z,96831.38
2022-08-05T11:29:11.646Z,96839.97
2022-08-05T11:31:56.271Z,96852.66
2022-08-05T11:34:52.095Z,96848.22
2022-08-05T11:38:28.065Z,96883.44
2022-08-05T11:41:14.152Z,96920.56
2022-08-05T11:44:08.339Z,96951.72
2022-08-05T11:47:09.911Z,96983.16
2022-08-05T11:49:38.662Z,97018.88
2022-08-05T11:52:11.601Z,97031.75
2022-08-05T11:54:40.596Z,97055.50
2022-08-05T11:57:24.859Z,97094.28
2022-08-05T11:59:54.901Z,97116.22
2022-08-05T12:02:30.181Z,97168.75
2022-08-05T12:04:59.590Z,97199.84
2022-08-05T12:08:10.228Z,97239.28
2022-08-05T12:10:12.994Z,97319.19
2022-08-05T12:12:39.709Z,97335.69
2022-08-05T12:15:38.407Z,97352.59
2022-08-05T12:18:10.842Z,97341.47
2022-08-05T12:20:38.832Z,97348.59
2022-08-05T12:23:09.767Z,97339.56
2022-08-05T12:25:53.486Z,97320.22
2022-08-05T12:28:32.954Z,97340.00
2022-08-05T12:31:02.302Z,97372.69
2022-08-05T12:33:36.430Z,97404.06
2022-08-05T12:36:03.902Z,97455.38
2022-08-05T12:38:35.811Z,97494.22
2022-08-05T12:41:03.213Z,97516.78
2022-08-05T12:43:32.229Z,97549.00
2022-08-05T12:45:58.920Z,97566.78
2022-08-05T12:48:27.164Z,97589.34
2022-08-05T12:52:10.740Z,97615.75
2022-08-05T12:54:03.982Z,97653.44
2022-08-05T12:56:35.411Z,97674.69
2022-08-05T12:59:23.841Z,97692.47
2022-08-05T13:02:07.656Z,97706.56
2022-08-05T13:04:52.295Z,97693.75
2022-08-05T13:07:56.183Z,97702.59
2022-08-05T13:10:13.819Z,97709.88
2022-08-05T13:12:57.248Z,97706.06
2022-08-05T13:15:36.045Z,97713.59
2022-08-05T13:18:18.770Z,97721.72
2022-08-05T13:20:46.472Z,97718.72
2022-08-05T13:23:12.935Z,97742.31
2022-08-05T13:25:52.366Z,97758.06
2022-08-05T13:28:25.573Z,97777.47
2022-08-05T13:30:53.279Z,97772.84
2022-08-05T13:34:22.397Z,97771.22
2022-08-05T13:36:09.124Z,97783.09
2022-08-05T13:38:42.179Z,97794.56
2022-08-05T13:41:10.731Z,97804.34
2022-08-05T13:43:44.650Z,97796.75
2022-08-05T13:46:30.646Z,97797.44
2022-08-05T13:49:04.870Z,97790.13
2022-08-05T13:51:40.913Z,97796.75
2022-08-05T13:54:12.684Z,97802.75
2022-08-05T13:56:45.524Z,97813.72
2022-08-05T13:59:20.506Z,97803.44
2022-08-05T14:01:56.729Z,97806.44
2022-08-05T14:04:54.163Z,97826.38
2022-08-05T14:07:57.010Z,97809.75
2022-08-05T14:10:18.920Z,97821.06
2022-08-05T14:12:54.614Z,97841.34
2022-08-05T14:16:07.072Z,97854.31
2022-08-05T14:18:17.508Z,97866.94
2022-08-05T14:20:47.457Z,97893.84
2022-08-05T14:23:15.352Z,97910.97
2022-08-05T14:25:53.956Z,97921.47
2022-08-05T14:28:27.033Z,97933.75
2022-08-05T14:30:54.717Z,97952.38
2022-08-05T14:33:22.980Z,97972.16
2022-08-05T14:35:52.060Z,97979.63
2022-08-05T14:38:27.788Z,97983.44
2022-08-05T14:40:59.432Z,98010.84
2022-08-05T14:44:01.615Z,98022.31
2022-08-05T14:46:12.344Z,98047.22
2022-08-05T14:48:38.808Z,98075.31
2022-08-05T14:51:05.363Z,98094.94
2022-08-05T14:53:34.946Z,98095.44
2022-08-05T14:56:11.245Z,98115.34
2022-08-05T14:58:38.470Z,98117.16
2022-08-05T15:01:24.169Z,98110.22
2022-08-05T15:04:11.521Z,98096.28
2022-08-05T15:06:38.767Z,98107.94
2022-08-05T15:09:07.032Z,98112.94
2022-08-05T15:11:51.292Z,98114.91
2022-08-05T15:14:34.703Z,98127.84
2022-08-05T15:17:10.032Z,98125.25
2022-08-05T15:19:55.135Z,98125.53
2022-08-05T15:22:22.030Z,98141.66
2022-08-05T15:24:54.116Z,98144.84
2022-08-05T15:27:20.561Z,98152.78
2022-08-05T15:29:47.052Z,98167.28
2022-08-05T15:32:21.599Z,98187.28
2022-08-05T15:34:54.022Z,98205.22
2022-08-05T15:38:31.840Z,98213.56
2022-08-05T15:41:01.992Z,98234.94
2022-08-05T15:43:01.345Z,98264.03
2022-08-05T15:45:42.887Z,98294.56
2022-08-05T15:48:14.274Z,98303.16
2022-08-05T15:50:43.846Z,98275.72
2022-08-05T15:53:12.979Z,98227.41
2022-08-05T15:56:03.043Z,98224.66
2022-08-05T15:58:28.450Z,98254.22
2022-08-05T16:01:04.274Z,98242.75
2022-08-05T16:03:42.199Z,98183.38
2022-08-05T16:06:09.198Z,98205.63
2022-08-05T16:08:38.050Z,98596.72
2022-08-05T16:11:04.522Z,98545.09
2022-08-05T16:13:34.291Z,98568.16
2022-08-05T16:16:01.797Z,98573.31
2022-08-05T16:18:29.950Z,98536.28
2022-08-05T16:20:56.438Z,98519.38
2022-08-05T16:23:22.948Z,98488.78
2022-08-05T16:25:49.834Z,98450.00
2022-08-05T16:28:22.313Z,98404.41
2022-08-05T16:30:52.054Z,98397.53
2022-08-05T16:33:19.343Z,98375.28
2022-08-05T16:35:49.942Z,98590.03
2022-08-05T16:38:28.149Z,98579.06
2022-08-05T16:41:00.319Z,98483.25
2022-08-05T16:43:28.994Z,98435.97
2022-08-05T16:46:03.933Z,98421.63
2022-08-05T16:48:35.677Z,98417.41
2022-08-05T16:51:02.336Z,98362.31
2022-08-05T16:54:04.927Z,98373.22
2022-08-05T16:56:21.817Z,98351.06
2022-08-05T16:58:49.856Z,98351.94
2022-08-05T17:01:16.429Z,98354.81
2022-08-05T17:03:45.428Z,98396.72
2022-08-05T17:06:11.914Z,98439.59
2022-08-05T17:08:52.461Z,98480.94
2022-08-05T17:11:20.167Z,98524.81
2022-08-05T17:13:50.048Z,98510.56
2022-08-05T17:16:32.672Z,98463.72
2022-08-05T17:18:59.833Z,98440.72
2022-08-05T17:21:26.282Z,98599.03
2022-08-05T17:24:19.324Z,98821.69
2022-08-05T17:26:53.236Z,98916.88
2022-08-05T17:29:22.455Z,98854.69
2022-08-05T17:31:58.362Z,98716.66
2022-08-05T17:34:30.262Z,98625.63
2022-08-05T17:36:58.945Z,98570.72
2022-08-05T17:39:34.098Z,98558.28
2022-08-05T17:42:20.427Z,98550.97
2022-08-05T17:44:51.043Z,98532.25
2022-08-05T17:47:22.231Z,98520.75
2022-08-05T17:50:03.826Z,98519.94
2022-08-05T17:52:33.979Z,98477.47
2022-08-05T17:55:00.869Z,98492.97
2022-08-05T17:57:29.510Z,98488.03
2022-08-05T18:00:05.516Z,98501.13
2022-08-05T18:02:35.765Z,98484.69
2022-08-05T18:05:05.951Z,98482.56
2022-08-05T18:07:42.043Z,98485.19
2022-08-05T18:10:11.002Z,98470.97
2022-08-05T18:12:37.932Z,98466.34
2022-08-05T18:15:05.150Z,98472.53
2022-08-05T18:17:59.599Z,98463.47
2022-08-05T18:20:19.376Z,98457.19
2022-08-05T18:22:57.397Z,98456.94
2022-08-05T18:25:25.147Z,98451.94
2022-08-05T18:27:59.035Z,98452.06
2022-08-05T18:30:29.191Z,98449.41
2022-08-05T18:33:00.825Z,98452.78
2022-08-05T18:36:01.293Z,98458.41
2022-08-05T18:38:19.470Z,98468.75
2022-08-05T18:41:56.358Z,98473.28
2022-08-05T18:43:42.976Z,98479.19
2022-08-05T18:46:15.022Z,98486.19
2022-08-05T18:48:42.161Z,98485.63
2022-08-05T18:52:03.354Z,98500.25
2022-08-05T18:54:14.312Z,98502.81
2022-08-05T18:56:40.768Z,98510.66
2022-08-05T18:59:43.090Z,98516.88
2022-08-05T19:01:58.194Z,98516.88
2022-08-05T19:04:25.591Z,98527.88
2022-08-05T19:06:53.525Z,98541.63
2022-08-05T19:09:20.586Z,98632.06
2022-08-05T19:11:59.810Z,99026.25
2022-08-05T19:14:52.176Z,99228.66
2022-08-05T19:17:14.370Z,99490.81
2022-08-05T19:19:44.084Z,99654.44
2022-08-05T19:22:17.082Z,99864.56
2022-08-05T19:24:55.849Z,99879.53
2022-08-05T19:27:22.844Z,99920.50
2022-08-05T19:29:49.962Z,99929.88
2022-08-05T19:32:16.450Z,99951.59
2022-08-05T19:34:55.194Z,99953.59
2022-08-05T19:37:29.962Z,99955.97
2022-08-05T19:40:10.582Z,99974.97
2022-08-05T19:42:38.827Z,99989.41
2022-08-05T19:45:07.213Z,100075.91
2022-08-05T19:47:37.223Z,100089.72
2022-08-05T19:50:04.372Z,100107.78
2022-08-05T19:52:32.701Z,100158.28
2022-08-05T19:56:11.305Z,100152.56
2022-08-05T19:58:06.886Z,100172.28
2022-08-05T20:00:34.875Z,100146.91
2022-08-05T20:03:01.482Z,100114.31
2022-08-05T20:05:42.913Z,100132.50
2022-08-05T20:08:09.897Z,100124.00
2022-08-05T20:10:36.784Z,100141.78
2022-08-05T20:13:03.377Z,100143.06
2022-08-05T20:15:51.887Z,100192.66
2022-08-05T20:18:33.567Z,100201.19
2022-08-05T20:21:04.428Z,100246.13
2022-08-05T20:23:40.238Z,100225.06
2022-08-05T20:26:19.726Z,100191.53
2022-08-05T20:28:48.692Z,100191.72
2022-08-05T20:31:16.500Z,100133.56
2022-08-05T20:33:44.074Z,100143.63
2022-08-05T20:36:11.339Z,100158.88
2022-08-05T20:38:38.152Z,100162.59
2022-08-05T20:41:24.084Z,100149.50
2022-08-05T20:43:58.648Z,100158.41
2022-08-05T20:46:29.325Z,100139.47
2022-08-05T20:48:55.844Z,100154.06
2022-08-05T20:51:22.295Z,100078.50
2022-08-05T20:53:55.092Z,100118.06
2022-08-05T20:56:28.911Z,100007.53
2022-08-05T20:58:56.695Z,100072.94
2022-08-05T21:01:38.577Z,100097.63
2022-08-05T21:04:07.226Z,100013.78
2022-08-05T21:06:37.107Z,100017.97
2022-08-05T21:09:05.649Z,99980.31
2022-08-05T21:12:07.064Z,100019.56
2022-08-05T21:14:20.045Z,99988.06
2022-08-05T21:16:46.488Z,99961.19
2022-08-05T21:19:13.244Z,99947.03
2022-08-05T21:21:44.545Z,99935.31
2022-08-05T21:24:19.502Z,99883.22
2022-08-05T21:26:58.446Z,99852.88
2022-08-05T21:29:26.430Z,99766.84
2022-08-05T21:31:58.342Z,99829.44
2022-08-05T21:34:24.904Z,99869.63
2022-08-05T21:36:51.401Z,99846.69
2022-08-05T21:39:27.015Z,99907.31
2022-08-05T21:42:01.878Z,99911.31
2022-08-05T21:44:29.814Z,99867.53
2022-08-05T21:46:57.992Z,99893.41
2022-08-05T21:49:48.085Z,99845.88
2022-08-05T21:52:16.327Z,99858.53
2022-08-05T21:54:51.283Z,99830.00
2022-08-05T21:57:31.414Z,99823.97
2022-08-05T22:00:07.201Z,99812.38
2022-08-05T22:02:38.167Z,99830.41
2022-08-05T22:05:05.078Z,99807.34
2022-08-05T22:07:40.042Z,99788.28
2022-08-05T22:10:27.151Z,99789.78
2022-08-05T22:12:57.530Z,99679.88
2022-08-05T22:16:00.750Z,99646.09
2022-08-05T22:18:12.423Z,99603.97
2022-08-05T22:20:41.164Z,99561.13
2022-08-05T22:24:00.838Z,99553.63
2022-08-05T22:26:31.322Z,99524.19
2022-08-05T22:28:58.102Z,99509.47
2022-08-05T22:31:24.952Z,99479.97
2022-08-05T22:34:01.193Z,99467.78
2022-08-05T22:36:29.073Z,99456.69
2022-08-05T22:38:55.733Z,99415.38
2022-08-05T22:42:04.398Z,99435.00
2022-08-05T22:44:09.261Z,99433.50
2022-08-05T22:46:39.516Z,99419.56
2022-08-05T22:49:23.382Z,99385.72
2022-08-05T22:52:06.445Z,99386.53
2022-08-05T22:54:35.557Z,99421.63
2022-08-05T22:57:03.393Z,99384.66
2022-08-05T22:59:45.247Z,99372.59
2022-08-05T23:02:16.746Z,99394.78
2022-08-05T23:04:43.675Z,99438.22
2022-08-05T23:07:18.284Z,99509.50
2022-08-05T23:09:57.166Z,99484.63
2022-08-05T23:12:29.013Z,99428.59
2022-08-05T23:14:59.609Z,99373.00
2022-08-05T23:17:34.851Z,99349.06
2022-08-05T23:20:16.522Z,99317.25
2022-08-05T23:22:47.583Z,99298.72
2022-08-05T23:25:50.080Z,99273.78
2022-08-05T23:28:01.770Z,99267.19
2022-08-05T23:30:29.225Z,99267.81
2022-08-05T23:32:57.902Z,99271.78
2022-08-05T23:35:25.443Z,99249.59
2022-08-05T23:37:55.172Z,99236.03
2022-08-05T23:40:27.111Z,99212.59
2022-08-05T23:42:53.947Z,99213.63
2022-08-05T23:45:20.527Z,99208.75
2022-08-05T23:47:50.369Z,99208.91
2022-08-05T23:50:20.483Z,99200.66
2022-08-05T23:52:49.557Z,99195.75
2022-08-05T23:55:17.029Z,99187.31
2022-08-05T23:57:43.895Z,99193.84
